sensor_id;sensor_type;location;lat;lon;timestamp;P1;durP1;ratioP1;P2;durP2;ratioP2
6336;SDS011;3201;49.962;11.618;2022-10-30T00:01:48;5.60;;;3.83;;
6336;SDS011;3201;49.962;11.618;2022-10-30T00:04:13;8.00;;;4.60;;
6336;SDS011;3201;49.962;11.618;2022-10-30T00:06:39;6.10;;;4.20;;
6336;SDS011;3201;49.962;11.618;2022-10-30T00:09:04;7.30;;;3.70;;
6336;SDS011;3201;49.962;11.618;2022-10-30T00:11:29;7.37;;;4.37;;
6336;SDS011;3201;49.962;11.618;2022-10-30T00:13:55;4.20;;;3.70;;
6336;SDS011;3201;49.962;11.618;2022-10-30T00:16:20;7.53;;;4.20;;
6336;SDS011;3201;49.962;11.618;2022-10-30T00:18:46;8.83;;;4.17;;
6336;SDS011;3201;49.962;11.618;2022-10-30T00:21:12;6.10;;;4.50;;
6336;SDS011;3201;49.962;11.618;2022-10-30T00:23:38;4.43;;;3.63;;
6336;SDS011;3201;49.962;11.618;2022-10-30T00:26:05;4.63;;;3.90;;
6336;SDS011;3201;49.962;11.618;2022-10-30T00:28:31;5.17;;;3.73;;
6336;SDS011;3201;49.962;11.618;2022-10-30T00:30:57;4.67;;;3.57;;
6336;SDS011;3201;49.962;11.618;2022-10-30T00:33:24;6.60;;;4.60;;
6336;SDS011;3201;49.962;11.618;2022-10-30T00:35:49;4.93;;;3.57;;
6336;SDS011;3201;49.962;11.618;2022-10-30T00:38:15;4.40;;;3.97;;
6336;SDS011;3201;49.962;11.618;2022-10-30T00:40:40;3.93;;;3.53;;
6336;SDS011;3201;49.962;11.618;2022-10-30T00:43:25;5.70;;;4.63;;
6336;SDS011;3201;49.962;11.618;2022-10-30T00:45:52;3.87;;;3.47;;
6336;SDS011;3201;49.962;11.618;2022-10-30T00:48:17;4.30;;;3.80;;
6336;SDS011;3201;49.962;11.618;2022-10-30T00:50:43;7.93;;;4.00;;
6336;SDS011;3201;49.962;11.618;2022-10-30T00:53:09;8.70;;;3.93;;
6336;SDS011;3201;49.962;11.618;2022-10-30T00:55:39;4.83;;;3.87;;
6336;SDS011;3201;49.962;11.618;2022-10-30T00:58:08;6.40;;;4.00;;
6336;SDS011;3201;49.962;11.618;2022-10-30T01:00:35;7.40;;;3.73;;
6336;SDS011;3201;49.962;11.618;2022-10-30T01:03:01;8.83;;;4.00;;
6336;SDS011;3201;49.962;11.618;2022-10-30T01:05:28;6.20;;;3.90;;
6336;SDS011;3201;49.962;11.618;2022-10-30T01:07:54;7.70;;;3.57;;
6336;SDS011;3201;49.962;11.618;2022-10-30T01:10:19;6.47;;;4.07;;
6336;SDS011;3201;49.962;11.618;2022-10-30T01:12:45;4.70;;;3.60;;
6336;SDS011;3201;49.962;11.618;2022-10-30T01:15:12;4.60;;;3.80;;
6336;SDS011;3201;49.962;11.618;2022-10-30T01:17:45;5.20;;;3.57;;
6336;SDS011;3201;49.962;11.618;2022-10-30T01:22:58;4.93;;;3.57;;
6336;SDS011;3201;49.962;11.618;2022-10-30T01:28:41;7.33;;;4.20;;
6336;SDS011;3201;49.962;11.618;2022-10-30T01:31:18;7.00;;;3.40;;
6336;SDS011;3201;49.962;11.618;2022-10-30T01:36:25;6.60;;;3.70;;
6336;SDS011;3201;49.962;11.618;2022-10-30T01:39:00;4.50;;;3.70;;
6336;SDS011;3201;49.962;11.618;2022-10-30T01:41:28;4.33;;;3.33;;
6336;SDS011;3201;49.962;11.618;2022-10-30T01:43:54;5.53;;;3.90;;
6336;SDS011;3201;49.962;11.618;2022-10-30T01:49:18;4.83;;;3.47;;
6336;SDS011;3201;49.962;11.618;2022-10-30T01:57:11;4.63;;;3.40;;
6336;SDS011;3201;49.962;11.618;2022-10-30T01:59:53;3.90;;;3.50;;
6336;SDS011;3201;49.962;11.618;2022-10-30T02:02:22;6.40;;;3.57;;
6336;SDS011;3201;49.962;11.618;2022-10-30T02:04:48;5.00;;;3.63;;
6336;SDS011;3201;49.962;11.618;2022-10-30T02:07:14;3.87;;;3.43;;
6336;SDS011;3201;49.962;11.618;2022-10-30T02:09:39;6.87;;;3.63;;
6336;SDS011;3201;49.962;11.618;2022-10-30T02:12:05;9.13;;;4.07;;
6336;SDS011;3201;49.962;11.618;2022-10-30T02:14:32;6.67;;;3.50;;
6336;SDS011;3201;49.962;11.618;2022-10-30T02:17:02;5.10;;;3.67;;
6336;SDS011;3201;49.962;11.618;2022-10-30T02:19:28;9.00;;;3.37;;
6336;SDS011;3201;49.962;11.618;2022-10-30T02:21:54;5.70;;;3.90;;
6336;SDS011;3201;49.962;11.618;2022-10-30T02:24:19;5.73;;;3.93;;
6336;SDS011;3201;49.962;11.618;2022-10-30T02:26:45;14.23;;;3.97;;
6336;SDS011;3201;49.962;11.618;2022-10-30T02:29:10;3.97;;;3.30;;
6336;SDS011;3201;49.962;11.618;2022-10-30T02:31:36;4.60;;;3.33;;
6336;SDS011;3201;49.962;11.618;2022-10-30T02:34:02;4.43;;;3.90;;
6336;SDS011;3201;49.962;11.618;2022-10-30T02:36:27;4.90;;;3.60;;
6336;SDS011;3201;49.962;11.618;2022-10-30T02:38:52;4.80;;;3.60;;
6336;SDS011;3201;49.962;11.618;2022-10-30T02:41:20;4.40;;;3.80;;
6336;SDS011;3201;49.962;11.618;2022-10-30T02:43:46;5.00;;;3.23;;
6336;SDS011;3201;49.962;11.618;2022-10-30T02:46:11;7.30;;;4.60;;
6336;SDS011;3201;49.962;11.618;2022-10-30T02:48:36;4.17;;;3.43;;
6336;SDS011;3201;49.962;11.618;2022-10-30T02:51:02;3.00;;;2.70;;
6336;SDS011;3201;49.962;11.618;2022-10-30T02:53:28;7.33;;;3.30;;
6336;SDS011;3201;49.962;11.618;2022-10-30T02:55:53;7.13;;;3.67;;
6336;SDS011;3201;49.962;11.618;2022-10-30T02:58:19;4.50;;;3.40;;
6336;SDS011;3201;49.962;11.618;2022-10-30T03:00:45;5.40;;;3.50;;
6336;SDS011;3201;49.962;11.618;2022-10-30T03:03:10;4.60;;;3.33;;
6336;SDS011;3201;49.962;11.618;2022-10-30T03:05:35;4.70;;;3.47;;
6336;SDS011;3201;49.962;11.618;2022-10-30T03:08:01;5.73;;;3.83;;
6336;SDS011;3201;49.962;11.618;2022-10-30T03:10:26;3.80;;;2.70;;
6336;SDS011;3201;49.962;11.618;2022-10-30T03:12:51;5.40;;;3.23;;
6336;SDS011;3201;49.962;11.618;2022-10-30T03:15:17;3.13;;;2.83;;
6336;SDS011;3201;49.962;11.618;2022-10-30T03:17:42;4.30;;;3.60;;
6336;SDS011;3201;49.962;11.618;2022-10-30T03:20:08;4.37;;;2.90;;
6336;SDS011;3201;49.962;11.618;2022-10-30T03:22:34;7.40;;;3.73;;
6336;SDS011;3201;49.962;11.618;2022-10-30T03:24:59;4.10;;;3.50;;
6336;SDS011;3201;49.962;11.618;2022-10-30T03:27:24;4.57;;;3.30;;
6336;SDS011;3201;49.962;11.618;2022-10-30T03:29:50;7.40;;;3.53;;
6336;SDS011;3201;49.962;11.618;2022-10-30T03:32:15;7.20;;;3.63;;
6336;SDS011;3201;49.962;11.618;2022-10-30T03:34:40;5.23;;;3.63;;
6336;SDS011;3201;49.962;11.618;2022-10-30T03:37:06;5.77;;;3.37;;
6336;SDS011;3201;49.962;11.618;2022-10-30T03:39:31;5.47;;;3.57;;
6336;SDS011;3201;49.962;11.618;2022-10-30T03:41:56;6.40;;;3.83;;
6336;SDS011;3201;49.962;11.618;2022-10-30T03:44:22;5.13;;;3.83;;
6336;SDS011;3201;49.962;11.618;2022-10-30T03:46:47;5.63;;;3.60;;
6336;SDS011;3201;49.962;11.618;2022-10-30T03:49:12;4.13;;;3.60;;
6336;SDS011;3201;49.962;11.618;2022-10-30T03:51:38;4.93;;;3.40;;
6336;SDS011;3201;49.962;11.618;2022-10-30T03:54:03;8.00;;;3.70;;
6336;SDS011;3201;49.962;11.618;2022-10-30T03:56:28;5.77;;;3.67;;
6336;SDS011;3201;49.962;11.618;2022-10-30T03:58:54;5.80;;;3.30;;
6336;SDS011;3201;49.962;11.618;2022-10-30T04:01:19;5.30;;;3.60;;
6336;SDS011;3201;49.962;11.618;2022-10-30T04:03:45;5.10;;;3.60;;
6336;SDS011;3201;49.962;11.618;2022-10-30T04:06:11;3.53;;;3.13;;
6336;SDS011;3201;49.962;11.618;2022-10-30T04:08:37;6.10;;;3.80;;
6336;SDS011;3201;49.962;11.618;2022-10-30T04:11:02;3.73;;;3.30;;
6336;SDS011;3201;49.962;11.618;2022-10-30T04:13:28;5.93;;;3.10;;
6336;SDS011;3201;49.962;11.618;2022-10-30T04:15:53;4.23;;;3.83;;
6336;SDS011;3201;49.962;11.618;2022-10-30T04:18:19;6.20;;;3.17;;
6336;SDS011;3201;49.962;11.618;2022-10-30T04:20:44;4.80;;;3.60;;
6336;SDS011;3201;49.962;11.618;2022-10-30T04:23:12;5.43;;;3.73;;
6336;SDS011;3201;49.962;11.618;2022-10-30T04:25:39;4.80;;;3.03;;
6336;SDS011;3201;49.962;11.618;2022-10-30T04:28:04;3.63;;;3.17;;
6336;SDS011;3201;49.962;11.618;2022-10-30T04:30:30;3.70;;;3.27;;
6336;SDS011;3201;49.962;11.618;2022-10-30T04:32:59;3.87;;;3.50;;
6336;SDS011;3201;49.962;11.618;2022-10-30T04:35:26;4.40;;;2.90;;
6336;SDS011;3201;49.962;11.618;2022-10-30T04:37:55;6.70;;;3.17;;
6336;SDS011;3201;49.962;11.618;2022-10-30T04:40:23;4.27;;;3.27;;
6336;SDS011;3201;49.962;11.618;2022-10-30T04:42:50;4.47;;;3.20;;
6336;SDS011;3201;49.962;11.618;2022-10-30T04:45:15;3.20;;;2.90;;
6336;SDS011;3201;49.962;11.618;2022-10-30T04:47:41;3.80;;;2.90;;
6336;SDS011;3201;49.962;11.618;2022-10-30T04:50:06;4.30;;;2.87;;
6336;SDS011;3201;49.962;11.618;2022-10-30T04:52:32;9.67;;;3.00;;
6336;SDS011;3201;49.962;11.618;2022-10-30T04:54:58;3.00;;;2.70;;
6336;SDS011;3201;49.962;11.618;2022-10-30T04:57:23;3.93;;;3.50;;
6336;SDS011;3201;49.962;11.618;2022-10-30T04:59:48;3.30;;;2.80;;
6336;SDS011;3201;49.962;11.618;2022-10-30T05:02:14;3.17;;;2.60;;
6336;SDS011;3201;49.962;11.618;2022-10-30T05:04:39;5.63;;;3.27;;
6336;SDS011;3201;49.962;11.618;2022-10-30T05:07:05;4.00;;;3.50;;
6336;SDS011;3201;49.962;11.618;2022-10-30T05:09:31;5.57;;;3.40;;
6336;SDS011;3201;49.962;11.618;2022-10-30T05:11:57;5.17;;;3.23;;
6336;SDS011;3201;49.962;11.618;2022-10-30T05:14:22;4.03;;;3.20;;
6336;SDS011;3201;49.962;11.618;2022-10-30T05:16:48;5.07;;;3.60;;
6336;SDS011;3201;49.962;11.618;2022-10-30T05:19:13;3.53;;;2.80;;
6336;SDS011;3201;49.962;11.618;2022-10-30T05:21:38;4.60;;;2.80;;
6336;SDS011;3201;49.962;11.618;2022-10-30T05:24:04;6.80;;;3.50;;
6336;SDS011;3201;49.962;11.618;2022-10-30T05:26:30;3.57;;;3.10;;
6336;SDS011;3201;49.962;11.618;2022-10-30T05:28:55;4.37;;;2.80;;
6336;SDS011;3201;49.962;11.618;2022-10-30T05:31:20;3.90;;;2.90;;
6336;SDS011;3201;49.962;11.618;2022-10-30T05:33:46;6.00;;;3.50;;
6336;SDS011;3201;49.962;11.618;2022-10-30T05:36:11;6.40;;;3.37;;
6336;SDS011;3201;49.962;11.618;2022-10-30T05:38:36;5.33;;;2.77;;
6336;SDS011;3201;49.962;11.618;2022-10-30T05:41:02;4.00;;;3.00;;
6336;SDS011;3201;49.962;11.618;2022-10-30T05:43:27;5.60;;;2.93;;
6336;SDS011;3201;49.962;11.618;2022-10-30T05:45:52;3.90;;;3.27;;
6336;SDS011;3201;49.962;11.618;2022-10-30T05:48:18;4.10;;;3.10;;
6336;SDS011;3201;49.962;11.618;2022-10-30T05:50:43;8.13;;;3.10;;
6336;SDS011;3201;49.962;11.618;2022-10-30T05:53:09;7.00;;;3.10;;
6336;SDS011;3201;49.962;11.618;2022-10-30T05:55:34;4.83;;;3.00;;
6336;SDS011;3201;49.962;11.618;2022-10-30T05:58:02;3.67;;;3.00;;
6336;SDS011;3201;49.962;11.618;2022-10-30T06:00:28;3.93;;;2.80;;
6336;SDS011;3201;49.962;11.618;2022-10-30T06:03:03;3.00;;;2.70;;
6336;SDS011;3201;49.962;11.618;2022-10-30T06:05:30;4.53;;;3.33;;
6336;SDS011;3201;49.962;11.618;2022-10-30T06:07:57;4.33;;;3.03;;
6336;SDS011;3201;49.962;11.618;2022-10-30T06:10:23;3.30;;;2.90;;
6336;SDS011;3201;49.962;11.618;2022-10-30T06:12:53;3.23;;;2.83;;
6336;SDS011;3201;49.962;11.618;2022-10-30T06:15:19;4.77;;;2.90;;
6336;SDS011;3201;49.962;11.618;2022-10-30T06:17:46;8.80;;;3.30;;
6336;SDS011;3201;49.962;11.618;2022-10-30T06:20:11;3.40;;;3.10;;
6336;SDS011;3201;49.962;11.618;2022-10-30T06:22:37;6.20;;;3.27;;
6336;SDS011;3201;49.962;11.618;2022-10-30T06:25:02;4.30;;;3.23;;
6336;SDS011;3201;49.962;11.618;2022-10-30T06:27:28;4.87;;;3.20;;
6336;SDS011;3201;49.962;11.618;2022-10-30T06:29:53;4.07;;;2.80;;
6336;SDS011;3201;49.962;11.618;2022-10-30T06:32:20;6.60;;;3.07;;
6336;SDS011;3201;49.962;11.618;2022-10-30T06:34:45;3.10;;;2.80;;
6336;SDS011;3201;49.962;11.618;2022-10-30T06:37:11;6.10;;;3.43;;
6336;SDS011;3201;49.962;11.618;2022-10-30T06:39:36;10.00;;;3.30;;
6336;SDS011;3201;49.962;11.618;2022-10-30T06:42:02;5.93;;;3.03;;
6336;SDS011;3201;49.962;11.618;2022-10-30T06:44:27;3.27;;;2.80;;
6336;SDS011;3201;49.962;11.618;2022-10-30T06:46:53;3.00;;;2.70;;
6336;SDS011;3201;49.962;11.618;2022-10-30T06:49:18;4.57;;;3.20;;
6336;SDS011;3201;49.962;11.618;2022-10-30T06:51:44;3.80;;;2.90;;
6336;SDS011;3201;49.962;11.618;2022-10-30T06:54:10;3.43;;;2.80;;
6336;SDS011;3201;49.962;11.618;2022-10-30T06:56:35;5.53;;;3.20;;
6336;SDS011;3201;49.962;11.618;2022-10-30T06:59:00;3.80;;;2.63;;
6336;SDS011;3201;49.962;11.618;2022-10-30T07:01:26;5.93;;;3.30;;
6336;SDS011;3201;49.962;11.618;2022-10-30T07:03:51;5.73;;;2.67;;
6336;SDS011;3201;49.962;11.618;2022-10-30T07:06:16;6.80;;;2.67;;
6336;SDS011;3201;49.962;11.618;2022-10-30T07:08:42;4.10;;;3.10;;
6336;SDS011;3201;49.962;11.618;2022-10-30T07:11:07;7.90;;;3.30;;
6336;SDS011;3201;49.962;11.618;2022-10-30T07:13:33;5.90;;;2.80;;
6336;SDS011;3201;49.962;11.618;2022-10-30T07:15:58;7.33;;;3.20;;
6336;SDS011;3201;49.962;11.618;2022-10-30T07:18:23;3.00;;;2.63;;
6336;SDS011;3201;49.962;11.618;2022-10-30T07:20:52;3.87;;;2.97;;
6336;SDS011;3201;49.962;11.618;2022-10-30T07:23:20;4.83;;;2.60;;
6336;SDS011;3201;49.962;11.618;2022-10-30T07:25:45;4.03;;;2.60;;
6336;SDS011;3201;49.962;11.618;2022-10-30T07:28:11;3.23;;;2.93;;
6336;SDS011;3201;49.962;11.618;2022-10-30T07:30:36;3.17;;;2.70;;
6336;SDS011;3201;49.962;11.618;2022-10-30T07:33:02;4.00;;;3.10;;
6336;SDS011;3201;49.962;11.618;2022-10-30T07:35:29;4.90;;;3.50;;
6336;SDS011;3201;49.962;11.618;2022-10-30T07:38:00;3.73;;;2.60;;
6336;SDS011;3201;49.962;11.618;2022-10-30T07:40:27;3.17;;;2.70;;
6336;SDS011;3201;49.962;11.618;2022-10-30T07:42:54;4.73;;;2.97;;
6336;SDS011;3201;49.962;11.618;2022-10-30T07:45:20;2.87;;;2.43;;
6336;SDS011;3201;49.962;11.618;2022-10-30T07:47:46;4.30;;;2.87;;
6336;SDS011;3201;49.962;11.618;2022-10-30T07:50:11;4.40;;;3.10;;
6336;SDS011;3201;49.962;11.618;2022-10-30T07:52:36;3.90;;;2.70;;
6336;SDS011;3201;49.962;11.618;2022-10-30T07:55:02;3.67;;;3.10;;
6336;SDS011;3201;49.962;11.618;2022-10-30T07:57:30;3.00;;;2.70;;
6336;SDS011;3201;49.962;11.618;2022-10-30T07:59:59;3.70;;;2.80;;
6336;SDS011;3201;49.962;11.618;2022-10-30T08:02:24;4.70;;;2.70;;
6336;SDS011;3201;49.962;11.618;2022-10-30T08:04:50;3.40;;;3.10;;
6336;SDS011;3201;49.962;11.618;2022-10-30T08:07:15;3.60;;;2.93;;
6336;SDS011;3201;49.962;11.618;2022-10-30T08:09:40;7.47;;;3.20;;
6336;SDS011;3201;49.962;11.618;2022-10-30T08:12:06;3.67;;;2.80;;
6336;SDS011;3201;49.962;11.618;2022-10-30T08:14:31;5.03;;;2.93;;
6336;SDS011;3201;49.962;11.618;2022-10-30T08:16:58;3.20;;;2.90;;
6336;SDS011;3201;49.962;11.618;2022-10-30T08:19:23;4.40;;;2.57;;
6336;SDS011;3201;49.962;11.618;2022-10-30T08:21:49;7.67;;;3.40;;
6336;SDS011;3201;49.962;11.618;2022-10-30T08:24:14;4.30;;;3.37;;
6336;SDS011;3201;49.962;11.618;2022-10-30T08:26:39;4.07;;;2.87;;
6336;SDS011;3201;49.962;11.618;2022-10-30T08:29:05;3.00;;;2.20;;
6336;SDS011;3201;49.962;11.618;2022-10-30T08:31:30;3.17;;;2.47;;
6336;SDS011;3201;49.962;11.618;2022-10-30T08:33:56;3.00;;;2.70;;
6336;SDS011;3201;49.962;11.618;2022-10-30T08:36:21;4.47;;;2.63;;
6336;SDS011;3201;49.962;11.618;2022-10-30T08:38:46;3.47;;;2.53;;
6336;SDS011;3201;49.962;11.618;2022-10-30T08:41:12;4.40;;;2.70;;
6336;SDS011;3201;49.962;11.618;2022-10-30T08:43:37;3.57;;;2.50;;
6336;SDS011;3201;49.962;11.618;2022-10-30T08:46:03;2.63;;;2.43;;
6336;SDS011;3201;49.962;11.618;2022-10-30T08:48:28;3.93;;;2.40;;
6336;SDS011;3201;49.962;11.618;2022-10-30T08:50:56;3.57;;;3.27;;
6336;SDS011;3201;49.962;11.618;2022-10-30T08:53:23;3.47;;;2.63;;
6336;SDS011;3201;49.962;11.618;2022-10-30T08:55:49;3.10;;;2.77;;
6336;SDS011;3201;49.962;11.618;2022-10-30T08:58:15;3.93;;;2.43;;
6336;SDS011;3201;49.962;11.618;2022-10-30T09:00:40;4.10;;;2.93;;
6336;SDS011;3201;49.962;11.618;2022-10-30T09:03:06;3.20;;;2.93;;
6336;SDS011;3201;49.962;11.618;2022-10-30T09:05:31;5.40;;;3.23;;
6336;SDS011;3201;49.962;11.618;2022-10-30T09:07:57;3.70;;;2.87;;
6336;SDS011;3201;49.962;11.618;2022-10-30T09:10:24;4.50;;;3.10;;
6336;SDS011;3201;49.962;11.618;2022-10-30T09:12:54;4.17;;;2.80;;
6336;SDS011;3201;49.962;11.618;2022-10-30T09:15:20;2.70;;;2.47;;
6336;SDS011;3201;49.962;11.618;2022-10-30T09:17:46;5.60;;;3.20;;
6336;SDS011;3201;49.962;11.618;2022-10-30T09:20:11;2.63;;;2.20;;
6336;SDS011;3201;49.962;11.618;2022-10-30T09:22:40;3.27;;;2.97;;
6336;SDS011;3201;49.962;11.618;2022-10-30T09:25:06;3.00;;;2.60;;
6336;SDS011;3201;49.962;11.618;2022-10-30T09:27:35;3.27;;;2.60;;
6336;SDS011;3201;49.962;11.618;2022-10-30T09:30:02;3.23;;;2.80;;
6336;SDS011;3201;49.962;11.618;2022-10-30T09:32:27;2.27;;;2.00;;
6336;SDS011;3201;49.962;11.618;2022-10-30T09:34:53;2.27;;;2.00;;
6336;SDS011;3201;49.962;11.618;2022-10-30T09:37:18;3.43;;;3.03;;
6336;SDS011;3201;49.962;11.618;2022-10-30T09:39:43;2.90;;;2.57;;
6336;SDS011;3201;49.962;11.618;2022-10-30T09:42:13;4.60;;;2.63;;
6336;SDS011;3201;49.962;11.618;2022-10-30T09:45:14;2.77;;;2.57;;
6336;SDS011;3201;49.962;11.618;2022-10-30T09:50:49;5.93;;;2.57;;
6336;SDS011;3201;49.962;11.618;2022-10-30T09:53:24;3.10;;;2.80;;
6336;SDS011;3201;49.962;11.618;2022-10-30T10:04:40;3.63;;;3.30;;
6336;SDS011;3201;49.962;11.618;2022-10-30T10:06:25;2.90;;;2.60;;
6336;SDS011;3201;49.962;11.618;2022-10-30T10:11:24;5.50;;;2.67;;
6336;SDS011;3201;49.962;11.618;2022-10-30T10:16:29;3.13;;;2.00;;
6336;SDS011;3201;49.962;11.618;2022-10-30T10:21:40;3.23;;;2.60;;
6336;SDS011;3201;49.962;11.618;2022-10-30T10:24:13;2.90;;;2.30;;
6336;SDS011;3201;49.962;11.618;2022-10-30T10:32:26;2.50;;;2.30;;
6336;SDS011;3201;49.962;11.618;2022-10-30T10:40:43;4.53;;;2.40;;
6336;SDS011;3201;49.962;11.618;2022-10-30T10:48:44;2.70;;;2.27;;
6336;SDS011;3201;49.962;11.618;2022-10-30T10:51:36;3.27;;;2.13;;
6336;SDS011;3201;49.962;11.618;2022-10-30T10:54:05;4.03;;;2.77;;
6336;SDS011;3201;49.962;11.618;2022-10-30T10:56:34;3.93;;;3.07;;
6336;SDS011;3201;49.962;11.618;2022-10-30T10:59:03;2.73;;;2.27;;
6336;SDS011;3201;49.962;11.618;2022-10-30T11:01:41;4.30;;;2.43;;
6336;SDS011;3201;49.962;11.618;2022-10-30T11:04:42;3.10;;;2.80;;
6336;SDS011;3201;49.962;11.618;2022-10-30T11:06:56;2.40;;;2.13;;
6336;SDS011;3201;49.962;11.618;2022-10-30T11:09:23;3.77;;;2.90;;
6336;SDS011;3201;49.962;11.618;2022-10-30T11:11:49;3.73;;;2.83;;
6336;SDS011;3201;49.962;11.618;2022-10-30T11:14:16;3.20;;;2.30;;
6336;SDS011;3201;49.962;11.618;2022-10-30T11:19:30;2.70;;;2.00;;
6336;SDS011;3201;49.962;11.618;2022-10-30T11:21:57;3.13;;;2.80;;
6336;SDS011;3201;49.962;11.618;2022-10-30T11:24:25;2.33;;;2.10;;
6336;SDS011;3201;49.962;11.618;2022-10-30T11:26:54;3.00;;;2.57;;
6336;SDS011;3201;49.962;11.618;2022-10-30T11:29:21;2.40;;;2.20;;
6336;SDS011;3201;49.962;11.618;2022-10-30T11:32:04;2.90;;;2.60;;
6336;SDS011;3201;49.962;11.618;2022-10-30T11:34:33;4.20;;;2.70;;
6336;SDS011;3201;49.962;11.618;2022-10-30T11:37:00;2.90;;;2.70;;
6336;SDS011;3201;49.962;11.618;2022-10-30T11:39:29;2.43;;;2.23;;
6336;SDS011;3201;49.962;11.618;2022-10-30T11:42:12;3.23;;;2.23;;
6336;SDS011;3201;49.962;11.618;2022-10-30T11:47:06;4.83;;;3.17;;
6336;SDS011;3201;49.962;11.618;2022-10-30T11:52:05;3.00;;;2.73;;
6336;SDS011;3201;49.962;11.618;2022-10-30T11:54:33;2.60;;;2.10;;
6336;SDS011;3201;49.962;11.618;2022-10-30T11:57:00;3.63;;;2.53;;
6336;SDS011;3201;49.962;11.618;2022-10-30T11:59:26;2.63;;;2.40;;
6336;SDS011;3201;49.962;11.618;2022-10-30T12:02:00;3.37;;;2.60;;
6336;SDS011;3201;49.962;11.618;2022-10-30T12:04:28;2.47;;;2.13;;
6336;SDS011;3201;49.962;11.618;2022-10-30T12:08:28;4.27;;;2.90;;
6336;SDS011;3201;49.962;11.618;2022-10-30T12:09:52;3.13;;;2.13;;
6336;SDS011;3201;49.962;11.618;2022-10-30T12:14:45;4.10;;;2.93;;
6336;SDS011;3201;49.962;11.618;2022-10-30T12:17:13;3.60;;;2.97;;
6336;SDS011;3201;49.962;11.618;2022-10-30T12:19:42;2.70;;;2.40;;
6336;SDS011;3201;49.962;11.618;2022-10-30T12:22:10;4.93;;;2.73;;
6336;SDS011;3201;49.962;11.618;2022-10-30T12:24:48;2.60;;;2.40;;
6336;SDS011;3201;49.962;11.618;2022-10-30T12:27:13;2.60;;;2.40;;
6336;SDS011;3201;49.962;11.618;2022-10-30T12:29:42;3.83;;;2.53;;
6336;SDS011;3201;49.962;11.618;2022-10-30T12:32:19;3.23;;;2.30;;
6336;SDS011;3201;49.962;11.618;2022-10-30T12:34:49;2.13;;;1.93;;
6336;SDS011;3201;49.962;11.618;2022-10-30T12:37:25;3.20;;;2.70;;
6336;SDS011;3201;49.962;11.618;2022-10-30T12:42:39;2.63;;;2.07;;
6336;SDS011;3201;49.962;11.618;2022-10-30T12:45:31;3.30;;;3.00;;
6336;SDS011;3201;49.962;11.618;2022-10-30T12:48:04;2.90;;;2.60;;
6336;SDS011;3201;49.962;11.618;2022-10-30T12:50:45;2.30;;;2.10;;
6336;SDS011;3201;49.962;11.618;2022-10-30T12:53:21;2.63;;;2.43;;
6336;SDS011;3201;49.962;11.618;2022-10-30T12:55:53;2.53;;;2.33;;
6336;SDS011;3201;49.962;11.618;2022-10-30T12:58:55;2.83;;;2.63;;
6336;SDS011;3201;49.962;11.618;2022-10-30T13:03:50;3.90;;;2.60;;
6336;SDS011;3201;49.962;11.618;2022-10-30T13:06:25;2.53;;;2.30;;
6336;SDS011;3201;49.962;11.618;2022-10-30T13:10:26;2.33;;;2.13;;
6336;SDS011;3201;49.962;11.618;2022-10-30T13:11:58;2.50;;;2.30;;
6336;SDS011;3201;49.962;11.618;2022-10-30T13:14:30;2.63;;;2.43;;
6336;SDS011;3201;49.962;11.618;2022-10-30T13:17:09;2.10;;;1.90;;
6336;SDS011;3201;49.962;11.618;2022-10-30T13:19:37;2.13;;;1.93;;
6336;SDS011;3201;49.962;11.618;2022-10-30T13:22:06;5.40;;;2.60;;
6336;SDS011;3201;49.962;11.618;2022-10-30T13:24:42;3.37;;;2.27;;
6336;SDS011;3201;49.962;11.618;2022-10-30T13:30:22;2.67;;;2.47;;
6336;SDS011;3201;49.962;11.618;2022-10-30T13:35:56;2.50;;;2.30;;
6336;SDS011;3201;49.962;11.618;2022-10-30T13:38:32;2.43;;;2.23;;
6336;SDS011;3201;49.962;11.618;2022-10-30T13:51:52;3.67;;;2.57;;
6336;SDS011;3201;49.962;11.618;2022-10-30T13:57:00;2.50;;;2.30;;
6336;SDS011;3201;49.962;11.618;2022-10-30T14:06:00;2.13;;;1.90;;
6336;SDS011;3201;49.962;11.618;2022-10-30T14:10:59;2.73;;;2.20;;
6336;SDS011;3201;49.962;11.618;2022-10-30T14:13:28;2.73;;;2.53;;
6336;SDS011;3201;49.962;11.618;2022-10-30T14:16:42;2.30;;;2.10;;
6336;SDS011;3201;49.962;11.618;2022-10-30T14:19:01;2.43;;;2.23;;
6336;SDS011;3201;49.962;11.618;2022-10-30T14:21:28;2.20;;;2.00;;
6336;SDS011;3201;49.962;11.618;2022-10-30T14:24:07;2.40;;;2.20;;
6336;SDS011;3201;49.962;11.618;2022-10-30T14:26:36;2.07;;;1.87;;
6336;SDS011;3201;49.962;11.618;2022-10-30T14:29:28;2.70;;;2.23;;
6336;SDS011;3201;49.962;11.618;2022-10-30T14:37:11;2.30;;;2.10;;
6336;SDS011;3201;49.962;11.618;2022-10-30T14:39:37;2.50;;;2.30;;
6336;SDS011;3201;49.962;11.618;2022-10-30T14:48:11;2.13;;;2.00;;
6336;SDS011;3201;49.962;11.618;2022-10-30T14:53:09;2.30;;;2.10;;
6336;SDS011;3201;49.962;11.618;2022-10-30T14:58:34;2.50;;;2.30;;
6336;SDS011;3201;49.962;11.618;2022-10-30T15:04:03;3.00;;;2.10;;
6336;SDS011;3201;49.962;11.618;2022-10-30T15:09:29;2.40;;;2.07;;
6336;SDS011;3201;49.962;11.618;2022-10-30T15:12:23;2.47;;;2.27;;
6336;SDS011;3201;49.962;11.618;2022-10-30T15:14:59;2.70;;;1.80;;
6336;SDS011;3201;49.962;11.618;2022-10-30T15:17:30;2.40;;;2.20;;
6336;SDS011;3201;49.962;11.618;2022-10-30T15:19:58;2.47;;;2.20;;
6336;SDS011;3201;49.962;11.618;2022-10-30T15:22:26;2.77;;;2.57;;
6336;SDS011;3201;49.962;11.618;2022-10-30T15:24:53;2.13;;;2.03;;
6336;SDS011;3201;49.962;11.618;2022-10-30T15:27:19;2.63;;;2.10;;
6336;SDS011;3201;49.962;11.618;2022-10-30T15:29:48;4.07;;;2.00;;
6336;SDS011;3201;49.962;11.618;2022-10-30T15:32:17;1.90;;;1.80;;
6336;SDS011;3201;49.962;11.618;2022-10-30T15:34:52;2.80;;;2.27;;
6336;SDS011;3201;49.962;11.618;2022-10-30T15:37:19;2.60;;;2.40;;
6336;SDS011;3201;49.962;11.618;2022-10-30T15:39:45;2.17;;;2.00;;
6336;SDS011;3201;49.962;11.618;2022-10-30T15:42:10;2.30;;;2.10;;
6336;SDS011;3201;49.962;11.618;2022-10-30T15:44:38;2.80;;;2.03;;
6336;SDS011;3201;49.962;11.618;2022-10-30T15:47:09;2.53;;;2.03;;
6336;SDS011;3201;49.962;11.618;2022-10-30T15:49:39;2.33;;;2.13;;
6336;SDS011;3201;49.962;11.618;2022-10-30T15:54:51;2.53;;;2.33;;
6336;SDS011;3201;49.962;11.618;2022-10-30T15:57:20;2.40;;;2.20;;
6336;SDS011;3201;49.962;11.618;2022-10-30T15:59:52;2.37;;;2.17;;
6336;SDS011;3201;49.962;11.618;2022-10-30T16:02:20;5.13;;;2.30;;
6336;SDS011;3201;49.962;11.618;2022-10-30T16:04:47;2.00;;;1.90;;
6336;SDS011;3201;49.962;11.618;2022-10-30T16:07:16;2.63;;;2.40;;
6336;SDS011;3201;49.962;11.618;2022-10-30T16:09:52;2.50;;;2.30;;
6336;SDS011;3201;49.962;11.618;2022-10-30T16:12:22;2.13;;;1.93;;
6336;SDS011;3201;49.962;11.618;2022-10-30T16:14:49;2.50;;;2.20;;
6336;SDS011;3201;49.962;11.618;2022-10-30T16:17:15;4.93;;;2.33;;
6336;SDS011;3201;49.962;11.618;2022-10-30T16:19:43;2.20;;;1.83;;
6336;SDS011;3201;49.962;11.618;2022-10-30T16:22:15;2.53;;;2.33;;
6336;SDS011;3201;49.962;11.618;2022-10-30T16:24:45;2.83;;;1.73;;
6336;SDS011;3201;49.962;11.618;2022-10-30T16:27:18;2.90;;;2.57;;
6336;SDS011;3201;49.962;11.618;2022-10-30T16:29:46;2.23;;;2.00;;
6336;SDS011;3201;49.962;11.618;2022-10-30T16:32:18;3.10;;;2.00;;
6336;SDS011;3201;49.962;11.618;2022-10-30T16:34:44;2.13;;;1.90;;
6336;SDS011;3201;49.962;11.618;2022-10-30T16:37:13;2.87;;;2.37;;
6336;SDS011;3201;49.962;11.618;2022-10-30T16:39:42;2.63;;;2.40;;
6336;SDS011;3201;49.962;11.618;2022-10-30T16:42:24;2.43;;;1.57;;
6336;SDS011;3201;49.962;11.618;2022-10-30T16:44:51;2.30;;;2.10;;
6336;SDS011;3201;49.962;11.618;2022-10-30T16:47:45;2.47;;;2.27;;
6336;SDS011;3201;49.962;11.618;2022-10-30T16:50:15;2.27;;;1.97;;
6336;SDS011;3201;49.962;11.618;2022-10-30T16:52:40;2.37;;;1.93;;
6336;SDS011;3201;49.962;11.618;2022-10-30T16:55:07;2.40;;;2.20;;
6336;SDS011;3201;49.962;11.618;2022-10-30T16:57:42;2.70;;;2.50;;
6336;SDS011;3201;49.962;11.618;2022-10-30T17:00:16;2.63;;;2.10;;
6336;SDS011;3201;49.962;11.618;2022-10-30T17:02:43;2.83;;;2.10;;
6336;SDS011;3201;49.962;11.618;2022-10-30T17:05:19;3.10;;;2.10;;
6336;SDS011;3201;49.962;11.618;2022-10-30T17:10:30;3.73;;;2.33;;
6336;SDS011;3201;49.962;11.618;2022-10-30T17:13:58;2.77;;;2.23;;